sensor_id;sensor_type;location;lat;lon;timestamp;temperature;humidity
22787;DHT22;63134;52.020;4.714;2023-04-10T00:00:43;10.50;71.30
22787;DHT22;63134;52.020;4.714;2023-04-10T00:03:30;10.50;71.20
22787;DHT22;63134;52.020;4.714;2023-04-10T00:06:16;10.50;71.30
22787;DHT22;63134;52.020;4.714;2023-04-10T00:09:01;10.50;71.50
22787;DHT22;63134;52.020;4.714;2023-04-10T00:11:46;10.50;71.60
22787;DHT22;63134;52.020;4.714;2023-04-10T00:14:32;10.50;71.70
22787;DHT22;63134;52.020;4.714;2023-04-10T00:17:18;10.50;71.70
22787;DHT22;63134;52.020;4.714;2023-04-10T00:20:04;10.50;71.70
22787;DHT22;63134;52.020;4.714;2023-04-10T00:22:50;10.50;71.70
22787;DHT22;63134;52.020;4.714;2023-04-10T00:25:35;10.50;71.70
22787;DHT22;63134;52.020;4.714;2023-04-10T00:28:21;10.40;71.80
22787;DHT22;63134;52.020;4.714;2023-04-10T00:31:06;10.40;71.90
22787;DHT22;63134;52.020;4.714;2023-04-10T00:33:52;10.50;72.00
22787;DHT22;63134;52.020;4.714;2023-04-10T00:36:37;10.40;72.00
22787;DHT22;63134;52.020;4.714;2023-04-10T00:39:23;10.40;72.10
22787;DHT22;63134;52.020;4.714;2023-04-10T00:42:08;10.40;72.10
22787;DHT22;63134;52.020;4.714;2023-04-10T00:44:54;10.40;72.30
22787;DHT22;63134;52.020;4.714;2023-04-10T00:47:39;10.40;72.40
22787;DHT22;63134;52.020;4.714;2023-04-10T00:50:25;10.30;72.40
22787;DHT22;63134;52.020;4.714;2023-04-10T00:53:11;10.30;72.50
22787;DHT22;63134;52.020;4.714;2023-04-10T00:55:57;10.30;72.70
22787;DHT22;63134;52.020;4.714;2023-04-10T00:58:43;10.30;72.80
22787;DHT22;63134;52.020;4.714;2023-04-10T01:01:29;10.20;73.10
22787;DHT22;63134;52.020;4.714;2023-04-10T01:04:16;10.20;73.20
22787;DHT22;63134;52.020;4.714;2023-04-10T01:07:20;10.20;73.20
22787;DHT22;63134;52.020;4.714;2023-04-10T01:10:37;10.10;73.50
22787;DHT22;63134;52.020;4.714;2023-04-10T01:13:35;10.10;73.70
22787;DHT22;63134;52.020;4.714;2023-04-10T01:16:50;10.00;73.90
22787;DHT22;63134;52.020;4.714;2023-04-10T01:19:56;10.00;74.10
22787;DHT22;63134;52.020;4.714;2023-04-10T01:26:12;9.90;74.60
22787;DHT22;63134;52.020;4.714;2023-04-10T01:29:08;9.90;74.70
22787;DHT22;63134;52.020;4.714;2023-04-10T01:32:02;9.80;75.00
22787;DHT22;63134;52.020;4.714;2023-04-10T01:34:51;9.80;75.20
22787;DHT22;63134;52.020;4.714;2023-04-10T01:37:41;9.80;75.40
22787;DHT22;63134;52.020;4.714;2023-04-10T01:40:30;9.80;75.70
22787;DHT22;63134;52.020;4.714;2023-04-10T01:43:18;9.70;76.10
22787;DHT22;63134;52.020;4.714;2023-04-10T01:46:08;9.70;76.20
22787;DHT22;63134;52.020;4.714;2023-04-10T01:48:57;9.70;76.60
22787;DHT22;63134;52.020;4.714;2023-04-10T01:51:47;9.70;76.70
22787;DHT22;63134;52.020;4.714;2023-04-10T01:54:34;9.70;76.70
22787;DHT22;63134;52.020;4.714;2023-04-10T01:57:20;9.70;76.70
22787;DHT22;63134;52.020;4.714;2023-04-10T02:00:15;9.70;76.80
22787;DHT22;63134;52.020;4.714;2023-04-10T02:03:03;9.60;77.30
22787;DHT22;63134;52.020;4.714;2023-04-10T02:06:14;9.70;77.40
22787;DHT22;63134;52.020;4.714;2023-04-10T02:09:22;9.60;77.50
22787;DHT22;63134;52.020;4.714;2023-04-10T02:12:35;9.60;77.60
22787;DHT22;63134;52.020;4.714;2023-04-10T02:15:20;9.60;77.90
22787;DHT22;63134;52.020;4.714;2023-04-10T02:18:08;9.60;78.50
22787;DHT22;63134;52.020;4.714;2023-04-10T02:20:54;9.70;79.00
22787;DHT22;63134;52.020;4.714;2023-04-10T02:23:40;9.70;79.20
22787;DHT22;63134;52.020;4.714;2023-04-10T02:26:25;9.70;79.50
22787;DHT22;63134;52.020;4.714;2023-04-10T02:29:11;9.70;79.70
22787;DHT22;63134;52.020;4.714;2023-04-10T02:31:56;9.70;79.90
22787;DHT22;63134;52.020;4.714;2023-04-10T02:34:42;9.70;80.10
22787;DHT22;63134;52.020;4.714;2023-04-10T02:37:28;9.70;80.30
22787;DHT22;63134;52.020;4.714;2023-04-10T02:40:15;9.70;80.30
22787;DHT22;63134;52.020;4.714;2023-04-10T02:43:12;9.80;80.70
22787;DHT22;63134;52.020;4.714;2023-04-10T02:45:58;9.80;80.60
22787;DHT22;63134;52.020;4.714;2023-04-10T02:48:47;9.70;80.70
22787;DHT22;63134;52.020;4.714;2023-04-10T02:51:34;9.80;81.00
22787;DHT22;63134;52.020;4.714;2023-04-10T02:54:21;9.80;81.10
22787;DHT22;63134;52.020;4.714;2023-04-10T02:57:06;9.80;81.20
22787;DHT22;63134;52.020;4.714;2023-04-10T02:59:52;9.70;81.20
22787;DHT22;63134;52.020;4.714;2023-04-10T03:02:40;9.70;81.30
22787;DHT22;63134;52.020;4.714;2023-04-10T03:05:32;9.70;81.50
22787;DHT22;63134;52.020;4.714;2023-04-10T03:08:21;9.80;81.60
22787;DHT22;63134;52.020;4.714;2023-04-10T03:11:07;9.70;81.50
22787;DHT22;63134;52.020;4.714;2023-04-10T03:13:53;9.70;81.50
22787;DHT22;63134;52.020;4.714;2023-04-10T03:16:39;9.70;81.70
22787;DHT22;63134;52.020;4.714;2023-04-10T03:19:25;9.70;81.70
22787;DHT22;63134;52.020;4.714;2023-04-10T03:22:11;9.70;81.70
22787;DHT22;63134;52.020;4.714;2023-04-10T03:25:01;9.70;81.80
22787;DHT22;63134;52.020;4.714;2023-04-10T03:27:50;9.70;81.90
22787;DHT22;63134;52.020;4.714;2023-04-10T03:30:36;9.70;81.90
22787;DHT22;63134;52.020;4.714;2023-04-10T03:33:22;9.70;81.80
22787;DHT22;63134;52.020;4.714;2023-04-10T03:36:08;9.70;82.60
22787;DHT22;63134;52.020;4.714;2023-04-10T03:38:53;9.70;81.80
22787;DHT22;63134;52.020;4.714;2023-04-10T03:41:39;9.70;81.70
22787;DHT22;63134;52.020;4.714;2023-04-10T03:44:27;9.70;81.70
22787;DHT22;63134;52.020;4.714;2023-04-10T03:47:14;9.70;81.70
22787;DHT22;63134;52.020;4.714;2023-04-10T03:50:06;9.70;81.50
22787;DHT22;63134;52.020;4.714;2023-04-10T03:53:02;9.70;82.20
22787;DHT22;63134;52.020;4.714;2023-04-10T03:55:53;9.70;81.20
22787;DHT22;63134;52.020;4.714;2023-04-10T03:58:40;9.70;81.20
22787;DHT22;63134;52.020;4.714;2023-04-10T04:01:26;9.80;81.90
22787;DHT22;63134;52.020;4.714;2023-04-10T04:04:17;9.80;80.90
22787;DHT22;63134;52.020;4.714;2023-04-10T04:07:06;9.80;80.60
22787;DHT22;63134;52.020;4.714;2023-04-10T04:10:07;9.90;80.30
22787;DHT22;63134;52.020;4.714;2023-04-10T04:13:04;9.90;80.00
22787;DHT22;63134;52.020;4.714;2023-04-10T04:15:58;10.00;79.70
22787;DHT22;63134;52.020;4.714;2023-04-10T04:19:03;10.00;79.40
22787;DHT22;63134;52.020;4.714;2023-04-10T04:21:57;10.00;79.20
22787;DHT22;63134;52.020;4.714;2023-04-10T04:25:03;9.90;79.00
22787;DHT22;63134;52.020;4.714;2023-04-10T04:28:12;10.00;79.00
22787;DHT22;63134;52.020;4.714;2023-04-10T04:31:33;10.00;78.90
22787;DHT22;63134;52.020;4.714;2023-04-10T04:34:34;9.90;78.60
22787;DHT22;63134;52.020;4.714;2023-04-10T04:37:25;10.00;78.70
22787;DHT22;63134;52.020;4.714;2023-04-10T04:40:30;9.90;78.70
22787;DHT22;63134;52.020;4.714;2023-04-10T04:43:21;9.90;78.60
22787;DHT22;63134;52.020;4.714;2023-04-10T04:46:15;9.90;78.50
22787;DHT22;63134;52.020;4.714;2023-04-10T04:49:28;10.00;78.50
22787;DHT22;63134;52.020;4.714;2023-04-10T04:52:33;9.90;78.40
22787;DHT22;63134;52.020;4.714;2023-04-10T04:55:40;9.90;78.50
22787;DHT22;63134;52.020;4.714;2023-04-10T04:58:36;10.00;78.40
22787;DHT22;63134;52.020;4.714;2023-04-10T05:01:31;10.00;78.20
22787;DHT22;63134;52.020;4.714;2023-04-10T05:04:37;10.00;78.10
22787;DHT22;63134;52.020;4.714;2023-04-10T05:07:55;10.00;78.00
22787;DHT22;63134;52.020;4.714;2023-04-10T05:11:15;10.00;78.70
22787;DHT22;63134;52.020;4.714;2023-04-10T05:14:15;10.00;77.80
22787;DHT22;63134;52.020;4.714;2023-04-10T05:17:24;10.00;77.80
22787;DHT22;63134;52.020;4.714;2023-04-10T05:20:22;10.00;77.80
22787;DHT22;63134;52.020;4.714;2023-04-10T05:23:28;10.00;77.80
22787;DHT22;63134;52.020;4.714;2023-04-10T05:26:30;10.00;77.70
22787;DHT22;63134;52.020;4.714;2023-04-10T05:29:36;10.00;77.70
22787;DHT22;63134;52.020;4.714;2023-04-10T05:32:33;10.00;77.70
22787;DHT22;63134;52.020;4.714;2023-04-10T05:35:35;10.00;77.70
22787;DHT22;63134;52.020;4.714;2023-04-10T05:38:41;10.00;77.70
22787;DHT22;63134;52.020;4.714;2023-04-10T05:41:30;10.00;77.80
22787;DHT22;63134;52.020;4.714;2023-04-10T05:44:25;10.10;77.90
22787;DHT22;63134;52.020;4.714;2023-04-10T05:47:22;10.10;77.80
22787;DHT22;63134;52.020;4.714;2023-04-10T05:50:23;10.10;77.70
22787;DHT22;63134;52.020;4.714;2023-04-10T05:53:35;10.20;77.80
22787;DHT22;63134;52.020;4.714;2023-04-10T05:56:56;10.20;77.70
22787;DHT22;63134;52.020;4.714;2023-04-10T06:00:08;10.30;77.50
22787;DHT22;63134;52.020;4.714;2023-04-10T06:03:19;10.30;77.20
22787;DHT22;63134;52.020;4.714;2023-04-10T06:06:11;10.40;77.30
22787;DHT22;63134;52.020;4.714;2023-04-10T06:08:58;10.40;77.10
22787;DHT22;63134;52.020;4.714;2023-04-10T06:11:43;10.40;76.80
22787;DHT22;63134;52.020;4.714;2023-04-10T06:14:29;10.50;76.70
22787;DHT22;63134;52.020;4.714;2023-04-10T06:17:18;10.60;76.60
22787;DHT22;63134;52.020;4.714;2023-04-10T06:20:06;10.60;76.30
22787;DHT22;63134;52.020;4.714;2023-04-10T06:22:52;10.60;76.00
22787;DHT22;63134;52.020;4.714;2023-04-10T06:25:38;10.70;75.80
22787;DHT22;63134;52.020;4.714;2023-04-10T06:28:23;10.80;75.70
22787;DHT22;63134;52.020;4.714;2023-04-10T06:31:18;10.80;75.30
22787;DHT22;63134;52.020;4.714;2023-04-10T06:34:07;10.90;75.20
22787;DHT22;63134;52.020;4.714;2023-04-10T06:36:55;10.90;74.90
22787;DHT22;63134;52.020;4.714;2023-04-10T06:39:40;11.00;74.70
22787;DHT22;63134;52.020;4.714;2023-04-10T06:42:29;11.00;74.40
22787;DHT22;63134;52.020;4.714;2023-04-10T06:45:19;11.00;74.10
22787;DHT22;63134;52.020;4.714;2023-04-10T06:48:05;11.10;74.00
22787;DHT22;63134;52.020;4.714;2023-04-10T06:50:51;11.20;73.80
22787;DHT22;63134;52.020;4.714;2023-04-10T06:53:36;11.30;73.50
22787;DHT22;63134;52.020;4.714;2023-04-10T06:56:22;11.40;73.20
22787;DHT22;63134;52.020;4.714;2023-04-10T06:59:09;11.50;73.00
22787;DHT22;63134;52.020;4.714;2023-04-10T07:01:55;11.60;72.60
22787;DHT22;63134;52.020;4.714;2023-04-10T07:04:41;11.70;72.20
22787;DHT22;63134;52.020;4.714;2023-04-10T07:07:26;11.80;71.60
22787;DHT22;63134;52.020;4.714;2023-04-10T07:10:16;11.80;71.50
22787;DHT22;63134;52.020;4.714;2023-04-10T07:13:03;11.90;71.00
22787;DHT22;63134;52.020;4.714;2023-04-10T07:15:49;12.00;70.60
22787;DHT22;63134;52.020;4.714;2023-04-10T07:18:34;12.10;70.30
22787;DHT22;63134;52.020;4.714;2023-04-10T07:21:23;12.10;69.80
22787;DHT22;63134;52.020;4.714;2023-04-10T07:24:08;12.10;70.00
22787;DHT22;63134;52.020;4.714;2023-04-10T07:26:54;12.20;69.20
22787;DHT22;63134;52.020;4.714;2023-04-10T07:29:41;12.30;69.40
22787;DHT22;63134;52.020;4.714;2023-04-10T07:32:26;12.30;68.20
22787;DHT22;63134;52.020;4.714;2023-04-10T07:35:12;12.30;68.40
22787;DHT22;63134;52.020;4.714;2023-04-10T07:37:57;12.30;67.90
22787;DHT22;63134;52.020;4.714;2023-04-10T07:40:43;12.30;67.70
22787;DHT22;63134;52.020;4.714;2023-04-10T07:43:28;12.30;68.60
22787;DHT22;63134;52.020;4.714;2023-04-10T07:46:14;12.40;68.20
22787;DHT22;63134;52.020;4.714;2023-04-10T07:48:59;12.50;67.40
22787;DHT22;63134;52.020;4.714;2023-04-10T07:51:45;12.60;67.60
22787;DHT22;63134;52.020;4.714;2023-04-10T07:54:31;12.70;67.40
22787;DHT22;63134;52.020;4.714;2023-04-10T07:57:18;12.80;66.80
22787;DHT22;63134;52.020;4.714;2023-04-10T08:00:07;12.90;67.30
22787;DHT22;63134;52.020;4.714;2023-04-10T08:03:03;12.90;66.10
22787;DHT22;63134;52.020;4.714;2023-04-10T08:05:49;13.00;66.40
22787;DHT22;63134;52.020;4.714;2023-04-10T08:08:36;13.10;65.70
22787;DHT22;63134;52.020;4.714;2023-04-10T08:11:25;13.10;65.50
22787;DHT22;63134;52.020;4.714;2023-04-10T08:14:11;13.20;65.70
22787;DHT22;63134;52.020;4.714;2023-04-10T08:17:02;13.20;65.30
22787;DHT22;63134;52.020;4.714;2023-04-10T08:19:48;13.20;65.10
22787;DHT22;63134;52.020;4.714;2023-04-10T08:22:33;13.20;65.00
22787;DHT22;63134;52.020;4.714;2023-04-10T08:25:19;13.20;64.80
22787;DHT22;63134;52.020;4.714;2023-04-10T08:28:04;13.30;65.10
22787;DHT22;63134;52.020;4.714;2023-04-10T08:30:52;13.30;64.10
22787;DHT22;63134;52.020;4.714;2023-04-10T08:33:37;13.40;64.50
22787;DHT22;63134;52.020;4.714;2023-04-10T08:36:23;13.50;63.80
22787;DHT22;63134;52.020;4.714;2023-04-10T08:39:08;13.60;63.70
22787;DHT22;63134;52.020;4.714;2023-04-10T08:41:54;13.60;63.50
22787;DHT22;63134;52.020;4.714;2023-04-10T08:44:40;13.70;63.10
22787;DHT22;63134;52.020;4.714;2023-04-10T08:47:27;13.70;63.20
22787;DHT22;63134;52.020;4.714;2023-04-10T08:50:16;13.90;63.20
22787;DHT22;63134;52.020;4.714;2023-04-10T08:53:09;14.10;62.60
22787;DHT22;63134;52.020;4.714;2023-04-10T08:55:56;14.20;62.30
22787;DHT22;63134;52.020;4.714;2023-04-10T08:58:41;14.40;62.20
22787;DHT22;63134;52.020;4.714;2023-04-10T09:01:28;14.60;62.10
22787;DHT22;63134;52.020;4.714;2023-04-10T09:04:13;14.80;61.30
22787;DHT22;63134;52.020;4.714;2023-04-10T09:07:01;14.90;60.40
22787;DHT22;63134;52.020;4.714;2023-04-10T09:09:46;15.00;60.10
22787;DHT22;63134;52.020;4.714;2023-04-10T09:12:46;15.00;60.00
22787;DHT22;63134;52.020;4.714;2023-04-10T09:15:57;15.10;59.80
22787;DHT22;63134;52.020;4.714;2023-04-10T09:18:45;15.10;59.10
22787;DHT22;63134;52.020;4.714;2023-04-10T09:21:31;15.20;58.90
22787;DHT22;63134;52.020;4.714;2023-04-10T09:24:16;15.30;59.10
22787;DHT22;63134;52.020;4.714;2023-04-10T09:27:01;15.40;58.50
22787;DHT22;63134;52.020;4.714;2023-04-10T09:29:53;15.40;58.60
22787;DHT22;63134;52.020;4.714;2023-04-10T09:32:43;15.50;58.50
22787;DHT22;63134;52.020;4.714;2023-04-10T09:35:36;15.60;58.50
22787;DHT22;63134;52.020;4.714;2023-04-10T09:38:25;15.70;58.40
22787;DHT22;63134;52.020;4.714;2023-04-10T09:41:10;15.80;58.10
22787;DHT22;63134;52.020;4.714;2023-04-10T09:44:10;15.80;57.90
22787;DHT22;63134;52.020;4.714;2023-04-10T09:46:56;15.90;58.00
22787;DHT22;63134;52.020;4.714;2023-04-10T09:49:47;15.90;57.40
22787;DHT22;63134;52.020;4.714;2023-04-10T09:52:34;15.90;57.70
22787;DHT22;63134;52.020;4.714;2023-04-10T09:55:19;15.90;57.60
22787;DHT22;63134;52.020;4.714;2023-04-10T09:58:05;15.90;57.80
22787;DHT22;63134;52.020;4.714;2023-04-10T10:00:51;16.00;57.70
22787;DHT22;63134;52.020;4.714;2023-04-10T10:03:37;16.00;57.50
22787;DHT22;63134;52.020;4.714;2023-04-10T10:06:25;16.00;57.60
22787;DHT22;63134;52.020;4.714;2023-04-10T10:09:11;16.10;57.70
22787;DHT22;63134;52.020;4.714;2023-04-10T10:11:57;16.10;57.90
22787;DHT22;63134;52.020;4.714;2023-04-10T10:18:03;16.40;57.40
22787;DHT22;63134;52.020;4.714;2023-04-10T10:20:50;16.50;57.60
22787;DHT22;63134;52.020;4.714;2023-04-10T10:23:37;16.70;56.80
22787;DHT22;63134;52.020;4.714;2023-04-10T10:26:24;16.80;56.20
22787;DHT22;63134;52.020;4.714;2023-04-10T10:29:09;17.00;56.60
22787;DHT22;63134;52.020;4.714;2023-04-10T10:31:55;17.30;56.40
22787;DHT22;63134;52.020;4.714;2023-04-10T10:34:42;17.70;56.00
22787;DHT22;63134;52.020;4.714;2023-04-10T10:37:28;18.10;54.80
22787;DHT22;63134;52.020;4.714;2023-04-10T10:40:40;18.20;53.80
22787;DHT22;63134;52.020;4.714;2023-04-10T10:46:48;18.10;51.50
22787;DHT22;63134;52.020;4.714;2023-04-10T10:49:54;18.20;52.10
22787;DHT22;63134;52.020;4.714;2023-04-10T10:55:30;18.70;51.70
22787;DHT22;63134;52.020;4.714;2023-04-10T10:58:16;18.90;51.10
22787;DHT22;63134;52.020;4.714;2023-04-10T11:01:04;19.10;51.30
22787;DHT22;63134;52.020;4.714;2023-04-10T11:03:54;19.30;50.90
22787;DHT22;63134;52.020;4.714;2023-04-10T11:06:50;19.30;49.50
22787;DHT22;63134;52.020;4.714;2023-04-10T11:09:50;19.50;49.40
22787;DHT22;63134;52.020;4.714;2023-04-10T11:13:15;19.70;49.60
22787;DHT22;63134;52.020;4.714;2023-04-10T11:16:02;19.90;48.00
22787;DHT22;63134;52.020;4.714;2023-04-10T11:24:56;19.40;48.60
22787;DHT22;63134;52.020;4.714;2023-04-10T11:27:44;19.30;49.20
22787;DHT22;63134;52.020;4.714;2023-04-10T11:30:34;19.20;49.80
22787;DHT22;63134;52.020;4.714;2023-04-10T11:33:20;19.20;50.00
22787;DHT22;63134;52.020;4.714;2023-04-10T11:36:16;19.10;50.20
22787;DHT22;63134;52.020;4.714;2023-04-10T11:41:57;18.70;50.90
22787;DHT22;63134;52.020;4.714;2023-04-10T11:44:42;18.50;51.50
22787;DHT22;63134;52.020;4.714;2023-04-10T11:47:28;18.30;51.60
22787;DHT22;63134;52.020;4.714;2023-04-10T11:50:13;18.20;52.20
22787;DHT22;63134;52.020;4.714;2023-04-10T11:52:59;18.10;53.20
22787;DHT22;63134;52.020;4.714;2023-04-10T11:55:44;17.90;53.30
22787;DHT22;63134;52.020;4.714;2023-04-10T11:58:34;17.90;54.40
22787;DHT22;63134;52.020;4.714;2023-04-10T12:01:22;17.70;53.70
22787;DHT22;63134;52.020;4.714;2023-04-10T12:04:16;17.60;54.50
22787;DHT22;63134;52.020;4.714;2023-04-10T12:07:02;17.60;54.90
22787;DHT22;63134;52.020;4.714;2023-04-10T12:09:55;17.40;55.00
22787;DHT22;63134;52.020;4.714;2023-04-10T12:12:41;17.40;55.10
22787;DHT22;63134;52.020;4.714;2023-04-10T12:15:27;17.30;55.40
22787;DHT22;63134;52.020;4.714;2023-04-10T12:18:13;17.20;55.50
22787;DHT22;63134;52.020;4.714;2023-04-10T12:20:59;17.10;55.90
22787;DHT22;63134;52.020;4.714;2023-04-10T12:23:45;17.00;56.50
22787;DHT22;63134;52.020;4.714;2023-04-10T12:26:32;16.90;56.70
22787;DHT22;63134;52.020;4.714;2023-04-10T12:29:18;16.90;56.90
22787;DHT22;63134;52.020;4.714;2023-04-10T12:32:10;16.90;57.20
22787;DHT22;63134;52.020;4.714;2023-04-10T12:34:57;16.80;57.20
22787;DHT22;63134;52.020;4.714;2023-04-10T12:37:48;16.80;57.30
22787;DHT22;63134;52.020;4.714;2023-04-10T12:40:33;16.70;58.10
22787;DHT22;63134;52.020;4.714;2023-04-10T12:43:38;16.70;58.90
22787;DHT22;63134;52.020;4.714;2023-04-10T12:46:25;16.60;60.60
22787;DHT22;63134;52.020;4.714;2023-04-10T12:49:15;16.60;60.40
22787;DHT22;63134;52.020;4.714;2023-04-10T12:52:02;16.50;60.90
22787;DHT22;63134;52.020;4.714;2023-04-10T12:54:48;16.50;61.30
22787;DHT22;63134;52.020;4.714;2023-04-10T12:57:33;16.40;61.90
22787;DHT22;63134;52.020;4.714;2023-04-10T13:00:19;16.30;62.70
22787;DHT22;63134;52.020;4.714;2023-04-10T13:03:05;16.20;64.20
22787;DHT22;63134;52.020;4.714;2023-04-10T13:05:53;16.10;65.00
22787;DHT22;63134;52.020;4.714;2023-04-10T13:08:41;15.90;66.40
22787;DHT22;63134;52.020;4.714;2023-04-10T13:11:27;15.90;67.20
22787;DHT22;63134;52.020;4.714;2023-04-10T13:14:13;15.70;68.00
22787;DHT22;63134;52.020;4.714;2023-04-10T13:16:58;15.60;69.20
22787;DHT22;63134;52.020;4.714;2023-04-10T13:19:44;15.50;69.70
22787;DHT22;63134;52.020;4.714;2023-04-10T13:22:29;15.50;70.40
22787;DHT22;63134;52.020;4.714;2023-04-10T13:25:15;15.40;71.40
22787;DHT22;63134;52.020;4.714;2023-04-10T13:28:00;15.40;72.50
22787;DHT22;63134;52.020;4.714;2023-04-10T13:30:46;15.30;72.80
22787;DHT22;63134;52.020;4.714;2023-04-10T13:33:31;15.30;73.20
22787;DHT22;63134;52.020;4.714;2023-04-10T13:36:16;15.30;73.60
22787;DHT22;63134;52.020;4.714;2023-04-10T13:39:05;15.20;74.30
22787;DHT22;63134;52.020;4.714;2023-04-10T13:41:50;15.10;74.70
22787;DHT22;63134;52.020;4.714;2023-04-10T13:44:36;15.20;75.20
22787;DHT22;63134;52.020;4.714;2023-04-10T13:47:21;15.20;75.50
22787;DHT22;63134;52.020;4.714;2023-04-10T13:50:07;15.10;75.50
22787;DHT22;63134;52.020;4.714;2023-04-10T13:52:53;15.10;76.50
22787;DHT22;63134;52.020;4.714;2023-04-10T13:55:38;14.90;77.00
22787;DHT22;63134;52.020;4.714;2023-04-10T13:58:27;14.90;78.50
22787;DHT22;63134;52.020;4.714;2023-04-10T14:01:16;14.80;79.10
22787;DHT22;63134;52.020;4.714;2023-04-10T14:04:01;14.70;79.80
22787;DHT22;63134;52.020;4.714;2023-04-10T14:06:47;14.60;80.30
22787;DHT22;63134;52.020;4.714;2023-04-10T14:09:36;14.50;80.70
22787;DHT22;63134;52.020;4.714;2023-04-10T14:12:22;14.40;81.90
22787;DHT22;63134;52.020;4.714;2023-04-10T14:15:08;14.30;83.20
22787;DHT22;63134;52.020;4.714;2023-04-10T14:17:53;14.10;84.60
22787;DHT22;63134;52.020;4.714;2023-04-10T14:20:39;14.10;84.60
22787;DHT22;63134;52.020;4.714;2023-04-10T14:23:26;13.90;86.80
22787;DHT22;63134;52.020;4.714;2023-04-10T14:26:14;13.80;86.80
22787;DHT22;63134;52.020;4.714;2023-04-10T14:28:59;13.80;87.70
22787;DHT22;63134;52.020;4.714;2023-04-10T14:31:45;13.70;88.30
22787;DHT22;63134;52.020;4.714;2023-04-10T14:34:42;13.60;88.90
22787;DHT22;63134;52.020;4.714;2023-04-10T14:37:27;13.60;89.60
22787;DHT22;63134;52.020;4.714;2023-04-10T14:40:13;13.60;90.00
22787;DHT22;63134;52.020;4.714;2023-04-10T14:42:58;13.50;90.40
22787;DHT22;63134;52.020;4.714;2023-04-10T14:45:44;13.50;90.80
22787;DHT22;63134;52.020;4.714;2023-04-10T14:48:29;13.50;90.90
22787;DHT22;63134;52.020;4.714;2023-04-10T14:51:15;13.50;91.10
22787;DHT22;63134;52.020;4.714;2023-04-10T14:54:01;13.50;91.40
22787;DHT22;63134;52.020;4.714;2023-04-10T14:56:48;13.50;91.60
22787;DHT22;63134;52.020;4.714;2023-04-10T14:59:33;13.40;91.80
22787;DHT22;63134;52.020;4.714;2023-04-10T15:02:20;13.40;91.80
22787;DHT22;63134;52.020;4.714;2023-04-10T15:05:05;13.50;91.90
22787;DHT22;63134;52.020;4.714;2023-04-10T15:07:51;13.50;92.20
22787;DHT22;63134;52.020;4.714;2023-04-10T15:10:36;13.40;92.50
22787;DHT22;63134;52.020;4.714;2023-04-10T15:13:22;13.40;92.80
22787;DHT22;63134;52.020;4.714;2023-04-10T15:16:07;13.40;93.00
22787;DHT22;63134;52.020;4.714;2023-04-10T15:18:52;13.40;93.30
22787;DHT22;63134;52.020;4.714;2023-04-10T15:21:38;13.40;93.70
22787;DHT22;63134;52.020;4.714;2023-04-10T15:24:25;13.30;94.10
22787;DHT22;63134;52.020;4.714;2023-04-10T15:27:12;13.40;94.50
22787;DHT22;63134;52.020;4.714;2023-04-10T15:30:00;13.40;95.00
22787;DHT22;63134;52.020;4.714;2023-04-10T15:32:46;13.40;95.60
22787;DHT22;63134;52.020;4.714;2023-04-10T15:35:31;13.50;95.20
22787;DHT22;63134;52.020;4.714;2023-04-10T15:38:21;13.50;95.20
22787;DHT22;63134;52.020;4.714;2023-04-10T15:41:11;13.50;95.70
22787;DHT22;63134;52.020;4.714;2023-04-10T15:43:59;13.60;95.50
22787;DHT22;63134;52.020;4.714;2023-04-10T15:46:45;13.60;95.60
22787;DHT22;63134;52.020;4.714;2023-04-10T15:49:31;13.60;95.90
22787;DHT22;63134;52.020;4.714;2023-04-10T15:52:22;13.40;96.50
22787;DHT22;63134;52.020;4.714;2023-04-10T15:55:08;13.40;97.00
22787;DHT22;63134;52.020;4.714;2023-04-10T15:57:54;13.40;97.50
22787;DHT22;63134;52.020;4.714;2023-04-10T16:00:39;13.40;97.40
22787;DHT22;63134;52.020;4.714;2023-04-10T16:03:25;13.40;97.30
22787;DHT22;63134;52.020;4.714;2023-04-10T16:06:14;13.40;97.60
22787;DHT22;63134;52.020;4.714;2023-04-10T16:09:00;13.40;97.70
22787;DHT22;63134;52.020;4.714;2023-04-10T16:11:46;13.40;97.80
22787;DHT22;63134;52.020;4.714;2023-04-10T16:14:32;13.40;98.10
22787;DHT22;63134;52.020;4.714;2023-04-10T16:17:17;13.30;98.20
22787;DHT22;63134;52.020;4.714;2023-04-10T16:20:06;13.30;98.60
22787;DHT22;63134;52.020;4.714;2023-04-10T16:22:59;13.20;98.80
22787;DHT22;63134;52.020;4.714;2023-04-10T16:25:44;13.30;98.80
22787;DHT22;63134;52.020;4.714;2023-04-10T16:28:30;13.30;99.10
22787;DHT22;63134;52.020;4.714;2023-04-10T16:31:16;13.30;99.00
22787;DHT22;63134;52.020;4.714;2023-04-10T16:34:01;13.30;99.10
22787;DHT22;63134;52.020;4.714;2023-04-10T16:36:47;13.40;99.00
22787;DHT22;63134;52.020;4.714;2023-04-10T16:39:32;13.40;99.00
22787;DHT22;63134;52.020;4.714;2023-04-10T16:42:18;13.30;99.20
22787;DHT22;63134;52.020;4.714;2023-04-10T16:45:03;13.30;99.80
22787;DHT22;63134;52.020;4.714;2023-04-10T16:47:49;13.20;99.90
22787;DHT22;63134;52.020;4.714;2023-04-10T16:50:35;13.30;99.90
22787;DHT22;63134;52.020;4.714;2023-04-10T16:53:21;13.30;99.90
22787;DHT22;63134;52.020;4.714;2023-04-10T16:56:06;13.30;99.90
22787;DHT22;63134;52.020;4.714;2023-04-10T16:58:52;13.40;99.70
22787;DHT22;63134;52.020;4.714;2023-04-10T17:01:38;13.50;99.50
22787;DHT22;63134;52.020;4.714;2023-04-10T17:04:24;13.50;99.70
22787;DHT22;63134;52.020;4.714;2023-04-10T17:07:09;13.50;99.40
22787;DHT22;63134;52.020;4.714;2023-04-10T17:09:55;13.40;99.90
22787;DHT22;63134;52.020;4.714;2023-04-10T17:12:44;13.40;99.70
22787;DHT22;63134;52.020;4.714;2023-04-10T17:15:35;13.40;99.80
22787;DHT22;63134;52.020;4.714;2023-04-10T17:18:20;13.40;99.80
22787;DHT22;63134;52.020;4.714;2023-04-10T17:21:11;13.40;99.80
22787;DHT22;63134;52.020;4.714;2023-04-10T17:23:57;13.40;99.40
22787;DHT22;63134;52.020;4.714;2023-04-10T17:26:43;13.40;99.20
22787;DHT22;63134;52.020;4.714;2023-04-10T17:29:29;13.40;98.90
22787;DHT22;63134;52.020;4.714;2023-04-10T17:32:14;13.50;98.60
22787;DHT22;63134;52.020;4.714;2023-04-10T17:35:00;14.10;99.40
22787;DHT22;63134;52.020;4.714;2023-04-10T17:37:46;15.00;94.90
22787;DHT22;63134;52.020;4.714;2023-04-10T17:40:31;14.90;93.40
22787;DHT22;63134;52.020;4.714;2023-04-10T17:43:17;14.80;92.60
22787;DHT22;63134;52.020;4.714;2023-04-10T17:46:03;14.40;92.60
22787;DHT22;63134;52.020;4.714;2023-04-10T17:48:49;14.10;92.70
22787;DHT22;63134;52.020;4.714;2023-04-10T17:51:34;14.00;92.60
22787;DHT22;63134;52.020;4.714;2023-04-10T17:54:20;13.80;92.80
22787;DHT22;63134;52.020;4.714;2023-04-10T17:57:05;13.80;92.90
22787;DHT22;63134;52.020;4.714;2023-04-10T17:59:51;13.80;92.80
22787;DHT22;63134;52.020;4.714;2023-04-10T18:02:36;13.70;92.80
22787;DHT22;63134;52.020;4.714;2023-04-10T18:05:22;13.70;92.90
22787;DHT22;63134;52.020;4.714;2023-04-10T18:08:07;13.70;93.00
22787;DHT22;63134;52.020;4.714;2023-04-10T18:10:53;13.60;93.00
22787;DHT22;63134;52.020;4.714;2023-04-10T18:13:38;13.60;93.00